Time;durP1;ratioP1;P1;durP2;ratioP2;P2;SDS_P1;SDS_P2;PMS_P1;PMS_P2;Temp;Humidity;BMP_temperature;BMP_pressure;BME280_temperature;BME280_humidity;BME280_pressure;Samples;Min_cycle;Max_cycle;Signal;HPM_P1;HPM_P2
2022/02/06 00:02:02;;;;;;;;;;;;;;;22.12;21.40;98162.97;4884454;29;1031;-71
2022/02/06 00:04:27;;;;;;;;;;;;;;;22.18;21.58;98160.41;4899430;29;1008;-71
2022/02/06 00:06:53;;;;;;;;;;;;;;;22.35;21.48;98165.59;4868877;29;980;-70
2022/02/06 00:09:19;;;;;;;;;;;;;;;22.50;21.22;98176.56;4900055;29;1179;-71
2022/02/06 00:11:44;;;;;;;;;;;;;;;22.38;21.05;98180.09;4900472;29;1907;-71
2022/02/06 00:14:10;;;;;;;;;;;;;;;22.08;21.55;98185.72;4884664;29;968;-71
2022/02/06 00:16:35;;;;;;;;;;;;;;;21.73;22.21;98176.06;4930043;29;1064;-71
2022/02/06 00:19:01;;;;;;;;;;;;;;;22.22;21.50;98184.56;4937496;29;1022;-71
2022/02/06 00:21:29;;;;;;;;;;;;;;;22.15;21.39;98183.97;4937813;29;1182;-71
2022/02/06 00:23:55;;;;;;;;;;;;;;;21.92;21.69;98182.91;4937441;29;1049;-71
2022/02/06 00:26:38;;;;;;;;;;;;;;;22.02;21.74;98193.16;4937776;29;1012;-70
2022/02/06 00:29:20;;;;;;;;;;;;;;;21.93;21.60;98190.16;4937787;29;1018;-71
2022/02/06 00:31:52;;;;;;;;;;;;;;;22.27;21.46;98191.72;4937327;29;1984;-71
2022/02/06 00:39:27;;;;;;;;;;;;;;;22.10;21.37;98205.09;4956744;28;1075;-71
2022/02/06 00:41:53;;;;;;;;;;;;;;;21.72;22.19;98216.97;4940558;29;949;-71
2022/02/06 00:44:18;;;;;;;;;;;;;;;22.15;21.45;98207.44;4956268;28;913;-71
2022/02/06 00:46:45;;;;;;;;;;;;;;;21.83;22.01;98206.16;4956286;28;1187;-71
2022/02/06 00:49:17;;;;;;;;;;;;;;;22.39;21.03;98202.38;4937093;29;1015;-71
2022/02/06 00:54:23;;;;;;;;;;;;;;;22.32;21.40;98226.00;4937160;29;1040;-71
2022/02/06 00:56:49;;;;;;;;;;;;;;;22.67;20.98;98231.97;4937212;29;1035;-70
2022/02/06 00:59:15;;;;;;;;;;;;;;;22.31;21.15;98232.13;4962322;28;1007;-70
2022/02/06 01:01:42;;;;;;;;;;;;;;;22.53;20.86;98232.34;4975348;28;1064;-71
2022/02/06 01:04:10;;;;;;;;;;;;;;;22.46;21.03;98226.88;4975490;28;1006;-70
2022/02/06 01:06:35;;;;;;;;;;;;;;;22.24;21.22;98227.44;4975680;28;1007;-71
2022/02/06 01:09:01;;;;;;;;;;;;;;;21.93;21.79;98226.97;4975493;28;963;-70
2022/02/06 01:11:26;;;;;;;;;;;;;;;22.01;21.69;98236.09;4975080;28;1910;-70
2022/02/06 01:16:28;;;;;;;;;;;;;;;22.35;21.11;98236.47;4975153;28;1003;-71
2022/02/06 01:19:02;;;;;;;;;;;;;;;22.12;21.41;98239.47;4975315;28;960;-71
2022/02/06 01:27:07;;;;;;;;;;;;;;;22.20;21.44;98226.72;4898344;29;1033;-71
2022/02/06 01:29:58;;;;;;;;;;;;;;;21.95;21.92;98244.31;4898491;29;1024;-71
2022/02/06 01:32:26;;;;;;;;;;;;;;;22.10;21.57;98247.59;4900738;29;1977;-71
2022/02/06 01:35:09;;;;;;;;;;;;;;;22.12;21.41;98247.19;4898566;29;937;-71
2022/02/06 01:37:45;;;;;;;;;;;;;;;21.74;21.69;98251.28;4898657;29;1073;-70
2022/02/06 01:40:29;;;;;;;;;;;;;;;22.30;21.03;98247.53;4898681;29;1011;-71
2022/02/06 01:43:03;;;;;;;;;;;;;;;21.85;21.81;98260.34;4885315;29;1059;-71
2022/02/06 01:45:52;;;;;;;;;;;;;;;21.99;21.37;98255.56;4898666;29;1037;-71
2022/02/06 02:16:05;;;;;;;;;;;;;;;21.89;21.79;98284.97;4936331;29;915;-71
2022/02/06 02:47:16;;;;;;;;;;;;;;;22.21;21.26;98324.69;4863732;29;998;-71
2022/02/06 02:49:49;;;;;;;;;;;;;;;22.62;20.69;98326.13;4863964;29;1021;-71
2022/02/06 02:52:25;;;;;;;;;;;;;;;22.45;21.11;98321.69;4876114;29;1988;-71
2022/02/06 02:54:59;;;;;;;;;;;;;;;22.39;21.16;98320.66;4878855;29;979;-71
2022/02/06 02:57:32;;;;;;;;;;;;;;;22.13;21.25;98322.50;4882549;29;1097;-71
2022/02/06 03:02:23;;;;;;;;;;;;;;;21.96;21.49;98327.28;4882655;29;1156;-71
2022/02/06 03:04:54;;;;;;;;;;;;;;;22.20;21.04;98340.09;4882471;29;1067;-70
2022/02/06 03:07:19;;;;;;;;;;;;;;;22.32;20.79;98342.22;4882433;29;1028;-71
2022/02/06 03:09:46;;;;;;;;;;;;;;;22.54;20.71;98341.72;4882293;29;1048;-70
2022/02/06 03:12:14;;;;;;;;;;;;;;;22.63;20.47;98344.72;4882404;29;1915;-70
2022/02/06 03:14:48;;;;;;;;;;;;;;;22.52;20.66;98339.31;4882498;29;1045;-71
2022/02/06 03:17:31;;;;;;;;;;;;;;;22.34;20.92;98353.94;4903523;29;1027;-71
2022/02/06 03:20:05;;;;;;;;;;;;;;;21.67;21.83;98356.25;4920064;29;1046;-71
2022/02/06 03:22:35;;;;;;;;;;;;;;;22.05;21.46;98364.31;4920230;29;1059;-71
2022/02/06 03:25:06;;;;;;;;;;;;;;;22.08;21.08;98363.44;4933626;28;931;-70
2022/02/06 03:27:32;;;;;;;;;;;;;;;22.20;21.05;98368.44;4977298;28;999;-70
2022/02/06 03:29:57;;;;;;;;;;;;;;;22.62;20.74;98363.78;4977174;28;1154;-70
2022/02/06 03:32:23;;;;;;;;;;;;;;;22.31;20.97;98369.00;4977298;28;1918;-70
2022/02/06 03:34:48;;;;;;;;;;;;;;;22.44;20.92;98365.47;4977355;28;938;-71
2022/02/06 03:37:13;;;;;;;;;;;;;;;22.27;20.91;98373.94;4961010;28;1016;-71
2022/02/06 03:39:40;;;;;;;;;;;;;;;21.92;21.67;98380.41;4976873;28;1045;-71
2022/02/06 03:42:15;;;;;;;;;;;;;;;22.14;21.04;98378.72;4977083;28;1020;-71
2022/02/06 03:44:46;;;;;;;;;;;;;;;21.93;21.45;98387.66;4977128;28;1004;-71
2022/02/06 03:47:24;;;;;;;;;;;;;;;22.33;20.99;98386.38;4982954;28;1170;-71
2022/02/06 03:52:15;;;;;;;;;;;;;;;22.23;21.20;98378.13;4976765;28;1983;-71
2022/02/06 03:54:40;;;;;;;;;;;;;;;22.33;20.80;98389.22;4976415;28;978;-70
2022/02/06 03:57:06;;;;;;;;;;;;;;;22.33;21.08;98400.56;4977248;28;996;-71
2022/02/06 03:59:34;;;;;;;;;;;;;;;22.55;20.50;98405.72;4957287;29;1072;-71
2022/02/06 04:01:59;;;;;;;;;;;;;;;22.21;21.21;98408.94;4957525;29;1050;-71
2022/02/06 04:04:26;;;;;;;;;;;;;;;22.10;20.94;98406.31;4957053;29;993;-71
2022/02/06 04:06:51;;;;;;;;;;;;;;;22.04;21.43;98413.72;4957154;29;1000;-70
2022/02/06 04:09:22;;;;;;;;;;;;;;;21.97;21.45;98399.72;4956972;29;1011;-71
2022/02/06 04:11:51;;;;;;;;;;;;;;;22.14;21.10;98406.25;4957455;29;1899;-71
2022/02/06 04:16:56;;;;;;;;;;;;;;;22.01;21.48;98404.06;4956886;29;983;-71
2022/02/06 04:19:25;;;;;;;;;;;;;;;22.23;20.83;98410.09;4956791;29;1197;-71
2022/02/06 04:21:51;;;;;;;;;;;;;;;21.85;21.61;98410.47;4956940;29;1011;-71
2022/02/06 04:24:17;;;;;;;;;;;;;;;21.56;21.93;98415.13;4993261;28;1080;-70
2022/02/06 04:26:42;;;;;;;;;;;;;;;22.02;21.15;98419.03;4995524;28;1043;-70
2022/02/06 04:29:08;;;;;;;;;;;;;;;22.14;21.37;98421.22;4995748;28;943;-71
2022/02/06 04:31:33;;;;;;;;;;;;;;;21.89;21.48;98412.44;5015488;28;1977;-70
2022/02/06 04:33:59;;;;;;;;;;;;;;;22.17;21.07;98420.34;5017353;28;1011;-71
2022/02/06 04:36:31;;;;;;;;;;;;;;;21.80;21.33;98425.16;5017125;28;914;-70
2022/02/06 04:39:10;;;;;;;;;;;;;;;21.94;21.39;98432.56;5017604;28;1181;-70
2022/02/06 05:29:38;;;;;;;;;;;;;;;21.87;21.66;98482.91;4898785;29;940;-71
2022/02/06 05:32:24;;;;;;;;;;;;;;;21.70;21.65;98482.81;4898960;29;1974;-71
2022/02/06 05:34:50;;;;;;;;;;;;;;;21.62;21.99;98492.69;4873109;29;1141;-71
2022/02/06 05:37:15;;;;;;;;;;;;;;;21.57;22.14;98493.19;4898804;29;1028;-71
2022/02/06 05:39:41;;;;;;;;;;;;;;;21.99;21.41;98487.91;4898535;29;1081;-71
2022/02/06 05:42:07;;;;;;;;;;;;;;;22.25;20.90;98489.81;4898730;29;1062;-71
2022/02/06 05:44:32;;;;;;;;;;;;;;;22.44;20.93;98493.88;4861447;29;1302;-71
2022/02/06 05:46:58;;;;;;;;;;;;;;;21.63;21.66;98502.78;4861185;29;1263;-71
2022/02/06 05:49:23;;;;;;;;;;;;;;;22.04;21.07;98490.25;4861369;29;947;-71
2022/02/06 05:51:48;;;;;;;;;;;;;;;21.92;21.40;98491.69;4861235;29;1976;-71
2022/02/06 05:54:14;;;;;;;;;;;;;;;22.36;21.01;98493.22;4832726;29;980;-71
2022/02/06 05:56:40;;;;;;;;;;;;;;;22.25;20.94;98497.53;4842773;29;1064;-71
2022/02/06 05:59:05;;;;;;;;;;;;;;;22.09;21.00;98501.06;4879251;29;1149;-71
2022/02/06 06:01:31;;;;;;;;;;;;;;;21.25;22.28;98503.03;4922215;29;1134;-71
2022/02/06 06:03:56;;;;;;;;;;;;;;;21.78;21.58;98504.09;4939302;29;947;-71
2022/02/06 06:06:22;;;;;;;;;;;;;;;21.78;21.70;98506.16;4921293;29;1047;-71
2022/02/06 06:08:47;;;;;;;;;;;;;;;21.82;21.48;98504.84;4917538;29;980;-71
2022/02/06 06:11:12;;;;;;;;;;;;;;;22.06;21.12;98511.22;4902347;29;1989;-71
2022/02/06 06:13:38;;;;;;;;;;;;;;;21.40;22.08;98519.78;4902216;29;1084;-71
2022/02/06 06:16:05;;;;;;;;;;;;;;;21.42;22.16;98517.31;4915227;29;1112;-71
2022/02/06 06:18:30;;;;;;;;;;;;;;;21.56;21.88;98517.09;4920812;29;1471;-71
2022/02/06 06:20:56;;;;;;;;;;;;;;;22.02;21.36;98515.38;4920767;29;998;-71
2022/02/06 06:23:24;;;;;;;;;;;;;;;21.32;22.13;98522.75;4920716;29;1101;-71
2022/02/06 06:25:51;;;;;;;;;;;;;;;21.52;21.94;98534.13;4963721;28;1038;-71
2022/02/06 06:28:17;;;;;;;;;;;;;;;21.85;21.39;98540.78;4978509;28;1006;-71
2022/02/06 06:30:42;;;;;;;;;;;;;;;21.41;22.24;98532.72;4977936;28;1898;-71
2022/02/06 06:33:07;;;;;;;;;;;;;;;21.53;21.87;98547.03;4978136;28;1177;-71
2022/02/06 06:35:33;;;;;;;;;;;;;;;21.72;21.50;98548.34;4978106;28;1208;-71
2022/02/06 06:37:59;;;;;;;;;;;;;;;22.03;21.28;98546.13;4978086;28;1122;-71
2022/02/06 06:40:26;;;;;;;;;;;;;;;22.01;21.40;98544.94;4978043;28;1051;-71
2022/02/06 06:42:51;;;;;;;;;;;;;;;22.26;21.15;98553.78;4977946;28;1124;-71
2022/02/06 06:45:16;;;;;;;;;;;;;;;22.19;21.05;98555.97;4977961;28;1012;-71
2022/02/06 06:47:48;;;;;;;;;;;;;;;21.85;21.58;98557.78;5009650;28;1019;-71
2022/02/06 06:50:14;;;;;;;;;;;;;;;22.18;21.35;98552.34;4977533;28;931;-72
2022/02/06 06:52:39;;;;;;;;;;;;;;;21.47;22.12;98570.63;4977565;28;1910;-71
2022/02/06 06:55:05;;;;;;;;;;;;;;;21.97;21.55;98558.41;4961352;28;1039;-71
2022/02/06 06:57:40;;;;;;;;;;;;;;;21.90;21.52;98564.19;4939407;29;1235;-72
2022/02/06 07:02:31;;;;;;;;;;;;;;;21.48;21.82;98555.22;4920143;29;982;-71
2022/02/06 07:04:58;;;;;;;;;;;;;;;22.11;21.24;98552.47;4888664;29;980;-71
2022/02/06 07:07:24;;;;;;;;;;;;;;;21.95;21.32;98558.03;4900950;29;955;-71
2022/02/06 07:09:50;;;;;;;;;;;;;;;21.94;21.35;98550.75;4885307;29;1020;-71
2022/02/06 07:12:15;;;;;;;;;;;;;;;22.16;21.25;98554.78;4882267;29;1911;-71
2022/02/06 07:14:41;;;;;;;;;;;;;;;21.96;21.51;98556.78;4881499;29;998;-71
2022/02/06 07:17:07;;;;;;;;;;;;;;;21.35;22.21;98562.72;4882473;29;959;-71
2022/02/06 07:19:32;;;;;;;;;;;;;;;21.85;21.68;98560.63;4866936;29;1068;-71
2022/02/06 07:21:59;;;;;;;;;;;;;;;22.00;21.57;98563.97;4896755;29;996;-71
2022/02/06 07:24:28;;;;;;;;;;;;;;;21.93;21.37;98563.34;4919989;29;963;-71
2022/02/06 07:26:57;;;;;;;;;;;;;;;22.65;20.80;98552.16;4919881;29;1034;-71
2022/02/06 07:29:24;;;;;;;;;;;;;;;22.43;20.86;98551.00;4919776;29;1041;-71
2022/02/06 07:31:50;;;;;;;;;;;;;;;22.06;21.34;98567.09;4919656;29;1907;-71
2022/02/06 07:34:16;;;;;;;;;;;;;;;21.90;21.77;98569.84;4927814;29;953;-71
2022/02/06 07:36:41;;;;;;;;;;;;;;;22.28;20.87;98568.34;4957621;29;916;-71
2022/02/06 07:39:07;;;;;;;;;;;;;;;22.52;21.04;98559.72;4947970;29;1246;-72
2022/02/06 07:41:32;;;;;;;;;;;;;;;22.09;21.08;98566.25;4957799;29;1013;-71
2022/02/06 07:43:58;;;;;;;;;;;;;;;21.92;21.58;98567.41;4977488;28;1221;-71
2022/02/06 07:46:30;;;;;;;;;;;;;;;21.99;21.48;98572.91;4988836;28;1265;-71
2022/02/06 07:48:59;;;;;;;;;;;;;;;22.17;21.10;98569.75;5002287;28;1273;-71
2022/02/06 07:51:25;;;;;;;;;;;;;;;22.24;21.21;98570.44;4987321;28;1918;-71
2022/02/06 07:53:51;;;;;;;;;;;;;;;22.14;21.43;98570.66;5001673;28;1278;-71
2022/02/06 07:56:16;;;;;;;;;;;;;;;22.22;21.25;98563.59;5005818;28;1373;-71
2022/02/06 07:58:42;;;;;;;;;;;;;;;22.13;21.18;98571.88;4992034;28;1329;-71
2022/02/06 08:01:07;;;;;;;;;;;;;;;22.17;21.49;98573.38;4995123;28;1282;-71
2022/02/06 08:03:32;;;;;;;;;;;;;;;21.60;21.79;98568.75;4995067;28;1313;-71
2022/02/06 08:05:58;;;;;;;;;;;;;;;21.99;21.68;98568.06;4994967;28;1231;-71
2022/02/06 08:08:23;;;;;;;;;;;;;;;21.97;21.39;98569.75;4975292;28;1254;-71
2022/02/06 08:10:50;;;;;;;;;;;;;;;22.10;21.51;98573.50;4975292;28;1980;-71
2022/02/06 08:13:26;;;;;;;;;;;;;;;22.01;21.61;98561.94;4975094;28;1242;-73
2022/02/06 08:15:52;;;;;;;;;;;;;;;22.10;21.60;98565.00;4973989;28;1203;-71
2022/02/06 08:18:17;;;;;;;;;;;;;;;22.07;21.49;98565.88;4976082;28;1199;-71
2022/02/06 08:20:43;;;;;;;;;;;;;;;21.92;21.62;98561.75;4995365;28;892;-71
2022/02/06 08:23:08;;;;;;;;;;;;;;;22.16;21.25;98566.13;4899484;29;990;-71
2022/02/06 08:25:34;;;;;;;;;;;;;;;22.33;21.31;98570.66;4898980;29;1153;-71
2022/02/06 08:28:00;;;;;;;;;;;;;;;22.14;21.37;98559.31;4869627;29;791;-71
2022/02/06 08:30:25;;;;;;;;;;;;;;;22.14;21.49;98557.28;4862497;29;906;-71
2022/02/06 08:32:51;;;;;;;;;;;;;;;21.98;21.36;98560.00;4862561;29;1978;-71
2022/02/06 08:35:16;;;;;;;;;;;;;;;22.33;21.27;98564.19;4865109;29;779;-71
2022/02/06 08:37:42;;;;;;;;;;;;;;;22.20;21.37;98552.69;4882104;29;1081;-71
2022/02/06 08:40:12;;;;;;;;;;;;;;;22.36;21.27;98555.59;4914542;29;803;-71
2022/02/06 08:42:39;;;;;;;;;;;;;;;22.18;21.49;98541.00;4899419;29;927;-71
2022/02/06 08:45:04;;;;;;;;;;;;;;;22.19;21.49;98559.59;4899735;29;878;-71
2022/02/06 08:47:30;;;;;;;;;;;;;;;22.09;21.37;98550.03;4899292;29;892;-71
2022/02/06 08:49:56;;;;;;;;;;;;;;;22.19;21.57;98559.59;4899282;29;879;-71
2022/02/06 08:52:21;;;;;;;;;;;;;;;22.12;21.68;98554.06;4899172;29;1972;-71
2022/02/06 08:54:47;;;;;;;;;;;;;;;22.00;21.78;98549.00;4943736;28;963;-70
2022/02/06 08:57:17;;;;;;;;;;;;;;;22.21;21.19;98545.78;4956490;28;937;-71
2022/02/06 08:59:43;;;;;;;;;;;;;;;22.16;21.51;98548.31;4920891;29;873;-71
2022/02/06 09:02:08;;;;;;;;;;;;;;;22.18;21.42;98546.66;4937219;29;822;-71
2022/02/06 09:04:34;;;;;;;;;;;;;;;21.92;21.96;98561.75;4937207;29;847;-71
2022/02/06 09:07:02;;;;;;;;;;;;;;;22.05;21.35;98549.31;4936857;29;909;-71
2022/02/06 09:09:27;;;;;;;;;;;;;;;21.99;21.67;98555.91;4937155;29;788;-71
2022/02/06 09:11:53;;;;;;;;;;;;;;;21.77;22.04;98553.50;4905271;29;1973;-70
2022/02/06 09:14:23;;;;;;;;;;;;;;;22.03;21.69;98548.16;4936967;29;880;-71
2022/02/06 09:16:50;;;;;;;;;;;;;;;22.12;21.63;98550.44;4898992;29;1027;-71
2022/02/06 09:19:17;;;;;;;;;;;;;;;22.32;21.27;98545.56;4906642;29;1173;-70
2022/02/06 09:21:43;;;;;;;;;;;;;;;22.18;21.30;98546.66;4920840;29;924;-71
2022/02/06 09:24:08;;;;;;;;;;;;;;;21.97;21.84;98541.41;4936596;29;767;-71
2022/02/06 09:26:35;;;;;;;;;;;;;;;22.22;21.51;98546.56;4898872;29;947;-71
2022/02/06 09:29:00;;;;;;;;;;;;;;;22.25;21.48;98540.84;4880038;29;877;-71
2022/02/06 09:31:27;;;;;;;;;;;;;;;22.00;21.89;98535.63;4879925;29;1993;-71
2022/02/06 09:36:18;;;;;;;;;;;;;;;22.11;21.45;98541.13;4886368;29;936;-71
2022/02/06 09:38:43;;;;;;;;;;;;;;;22.00;21.58;98541.31;4917404;29;1057;-71
2022/02/06 09:41:09;;;;;;;;;;;;;;;22.06;21.89;98544.44;4917609;29;884;-71
2022/02/06 09:43:34;;;;;;;;;;;;;;;21.51;22.21;98537.41;4917836;29;1166;-71
2022/02/06 09:46:01;;;;;;;;;;;;;;;22.14;21.36;98545.94;4917433;29;1146;-71
2022/02/06 09:48:27;;;;;;;;;;;;;;;21.97;21.85;98535.72;4946423;28;811;-71
2022/02/06 09:50:53;;;;;;;;;;;;;;;22.15;21.76;98535.41;4974962;28;1899;-71
2022/02/06 09:53:18;;;;;;;;;;;;;;;22.08;21.82;98536.31;4975045;28;880;-71
2022/02/06 09:55:46;;;;;;;;;;;;;;;22.03;21.77;98539.66;4974899;28;790;-71
2022/02/06 09:58:38;;;;;;;;;;;;;;;21.80;22.00;98527.13;4955609;28;961;-71
2022/02/06 10:01:00;;;;;;;;;;;;;;;22.15;21.54;98518.38;4955387;28;817;-71
2022/02/06 10:03:25;;;;;;;;;;;;;;;21.94;21.86;98516.75;4955788;29;741;-71
2022/02/06 10:05:51;;;;;;;;;;;;;;;21.97;21.95;98508.19;4953699;29;1054;-71
2022/02/06 10:08:20;;;;;;;;;;;;;;;21.63;22.47;98514.09;4917302;29;1166;-71
2022/02/06 10:10:51;;;;;;;;;;;;;;;22.04;21.84;98490.25;4917151;29;1968;-70
2022/02/06 10:13:17;;;;;;;;;;;;;;;21.75;21.94;98496.47;4916820;29;1450;-71
2022/02/06 10:15:42;;;;;;;;;;;;;;;22.01;21.87;98491.91;4917041;29;799;-71
2022/02/06 10:18:08;;;;;;;;;;;;;;;22.07;21.86;98478.00;4876615;29;924;-71
2022/02/06 10:20:42;;;;;;;;;;;;;;;22.35;21.52;98488.78;4879726;29;753;-71
2022/02/06 10:23:10;;;;;;;;;;;;;;;22.28;21.47;98483.28;4842430;29;1056;-71
2022/02/06 10:25:48;;;;;;;;;;;;;;;22.19;21.45;98479.44;4842464;29;945;-71
2022/02/06 10:30:57;;;;;;;;;;;;;;;22.11;21.78;98473.09;4861165;29;1895;-71
2022/02/06 10:33:23;;;;;;;;;;;;;;;22.19;21.78;98468.91;4845418;29;993;-71
2022/02/06 10:35:55;;;;;;;;;;;;;;;22.33;21.41;98465.75;4860770;29;960;-71
2022/02/06 10:38:24;;;;;;;;;;;;;;;22.14;21.76;98472.25;4873887;29;1378;-71
2022/02/06 10:41:03;;;;;;;;;;;;;;;22.01;21.54;98468.44;4898131;29;963;-71
2022/02/06 10:43:28;;;;;;;;;;;;;;;22.38;21.45;98464.41;4890150;29;847;-71
2022/02/06 10:46:10;;;;;;;;;;;;;;;21.82;22.07;98455.88;4879391;29;989;-71
2022/02/06 10:48:43;;;;;;;;;;;;;;;22.11;21.67;98453.28;4890457;29;988;-71
2022/02/06 10:51:08;;;;;;;;;;;;;;;22.00;21.93;98455.50;4904705;29;1982;-71
2022/02/06 10:53:34;;;;;;;;;;;;;;;21.95;22.03;98458.84;4906513;29;820;-71
2022/02/06 10:56:00;;;;;;;;;;;;;;;22.02;21.80;98458.69;4920270;29;972;-71
2022/02/06 10:58:26;;;;;;;;;;;;;;;22.39;21.45;98448.22;4901326;29;1016;-71
2022/02/06 11:00:51;;;;;;;;;;;;;;;22.42;21.13;98447.31;4882544;29;933;-71
2022/02/06 11:03:22;;;;;;;;;;;;;;;22.40;21.17;98446.97;4836105;29;1005;-71
2022/02/06 11:05:53;;;;;;;;;;;;;;;22.14;21.71;98441.06;4826784;29;1047;-71
2022/02/06 11:08:25;;;;;;;;;;;;;;;22.34;21.58;98441.84;4827231;29;1075;-71
2022/02/06 11:11:00;;;;;;;;;;;;;;;21.78;21.95;98433.28;4810501;29;1903;-71
2022/02/06 11:13:26;;;;;;;;;;;;;;;22.05;21.63;98438.00;4829292;29;1010;-71
2022/02/06 11:15:51;;;;;;;;;;;;;;;22.12;21.80;98432.19;4866440;29;924;-71
2022/02/06 11:18:23;;;;;;;;;;;;;;;22.02;21.75;98424.69;4901146;29;987;-71
2022/02/06 11:20:57;;;;;;;;;;;;;;;22.20;21.50;98424.34;4863386;29;1022;-71
2022/02/06 11:23:23;;;;;;;;;;;;;;;22.04;21.77;98413.72;4863849;29;939;-71
2022/02/06 11:25:49;;;;;;;;;;;;;;;21.98;22.01;98410.63;4863673;29;999;-71
2022/02/06 11:28:16;;;;;;;;;;;;;;;21.76;22.15;98413.13;4826669;29;1219;-71
2022/02/06 11:30:44;;;;;;;;;;;;;;;22.18;21.71;98421.16;4845126;29;1002;-71
2022/02/06 11:33:10;;;;;;;;;;;;;;;22.12;21.88;98408.72;4808318;29;1077;-71
2022/02/06 11:35:40;;;;;;;;;;;;;;;21.80;22.29;98402.47;4827023;29;998;-71
2022/02/06 11:43:52;;;;;;;;;;;;;;;22.11;21.75;98373.91;4881986;29;974;-71
2022/02/06 11:46:36;;;;;;;;;;;;;;;22.04;22.02;98380.53;4882089;29;931;-71
2022/02/06 11:49:08;;;;;;;;;;;;;;;22.04;21.82;98382.56;4881926;29;1064;-71
2022/02/06 11:51:34;;;;;;;;;;;;;;;22.09;21.73;98373.53;4874005;29;1978;-71
2022/02/06 11:54:15;;;;;;;;;;;;;;;21.97;22.02;98368.56;4863116;29;975;-71
2022/02/06 11:56:42;;;;;;;;;;;;;;;22.22;21.67;98363.13;4863432;29;1200;-71
2022/02/06 11:59:11;;;;;;;;;;;;;;;22.24;21.75;98369.16;4879388;29;990;-71
2022/02/06 12:01:36;;;;;;;;;;;;;;;22.20;21.72;98359.94;4899511;29;986;-71
2022/02/06 12:04:03;;;;;;;;;;;;;;;22.30;21.38;98367.41;4881490;29;1079;-71
2022/02/06 12:06:29;;;;;;;;;;;;;;;22.22;21.49;98354.63;4912636;29;999;-71
2022/02/06 12:08:58;;;;;;;;;;;;;;;22.16;21.79;98350.72;4919118;29;1055;-72
2022/02/06 12:11:26;;;;;;;;;;;;;;;22.08;21.81;98343.63;4919448;29;1906;-71
2022/02/06 12:14:12;;;;;;;;;;;;;;;22.15;21.76;98343.47;4929629;28;1010;-71
2022/02/06 12:16:46;;;;;;;;;;;;;;;22.09;21.85;98336.69;4957378;28;953;-71
2022/02/06 12:19:26;;;;;;;;;;;;;;;22.08;21.96;98337.94;4942547;28;1071;-71
2022/02/06 12:21:52;;;;;;;;;;;;;;;22.29;21.61;98337.47;4957287;28;1021;-71
2022/02/06 12:24:36;;;;;;;;;;;;;;;22.09;21.66;98336.69;4956587;28;1284;-71
2022/02/06 12:27:21;;;;;;;;;;;;;;;22.11;21.60;98339.91;4956328;28;1294;-71
2022/02/06 12:29:49;;;;;;;;;;;;;;;22.08;21.66;98337.94;4953912;28;1259;-71
2022/02/06 12:32:27;;;;;;;;;;;;;;;22.23;21.75;98333.56;4956585;28;1914;-71
2022/02/06 12:37:37;;;;;;;;;;;;;;;22.17;21.59;98328.84;4995218;28;1194;-71
2022/02/06 12:40:06;;;;;;;;;;;;;;;22.08;21.61;98324.56;4962763;28;1124;-71
2022/02/06 12:42:38;;;;;;;;;;;;;;;22.25;21.71;98316.09;4962757;28;952;-71
2022/02/06 12:45:04;;;;;;;;;;;;;;;22.32;21.58;98313.09;4995521;28;1000;-71
2022/02/06 12:47:29;;;;;;;;;;;;;;;22.15;21.87;98315.13;4987755;28;2079;-71
2022/02/06 12:49:55;;;;;;;;;;;;;;;22.27;21.66;98317.25;4901738;29;1263;-71
2022/02/06 12:52:20;;;;;;;;;;;;;;;22.11;21.79;98314.41;4893817;29;1919;-71
2022/02/06 12:54:46;;;;;;;;;;;;;;;21.96;21.64;98311.06;4892191;29;1296;-71
2022/02/06 12:57:14;;;;;;;;;;;;;;;22.02;21.63;98311.34;4908515;29;1354;-71
2022/02/06 12:59:39;;;;;;;;;;;;;;;22.05;21.60;98304.81;4893917;29;1351;-71
2022/02/06 13:02:07;;;;;;;;;;;;;;;22.03;21.68;98312.97;4862472;29;1209;-71
2022/02/06 13:04:40;;;;;;;;;;;;;;;22.16;21.47;98311.03;4862043;29;1068;-71
2022/02/06 13:07:06;;;;;;;;;;;;;;;21.98;21.79;98288.00;4877118;29;1112;-72
2022/02/06 13:09:36;;;;;;;;;;;;;;;22.15;21.73;98298.13;4880437;29;1054;-71
2022/02/06 13:12:09;;;;;;;;;;;;;;;22.29;21.65;98297.78;4893530;29;1982;-71
2022/02/06 13:14:55;;;;;;;;;;;;;;;21.92;22.00;98301.88;4899121;29;976;-71
2022/02/06 13:38:49;;;;;;;;;;;;;;;21.99;22.13;98283.91;4888938;29;1305;-71
2022/02/06 13:41:20;;;;;;;;;;;;;;;22.00;21.97;98277.78;4898537;29;1001;-71
2022/02/06 13:43:46;;;;;;;;;;;;;;;21.97;22.18;98286.41;4898613;29;991;-71
2022/02/06 13:46:18;;;;;;;;;;;;;;;22.15;21.82;98286.78;4914113;29;1382;-71
2022/02/06 13:48:47;;;;;;;;;;;;;;;21.95;22.04;98280.34;4898574;29;1012;-71
2022/02/06 13:51:12;;;;;;;;;;;;;;;21.97;22.11;98280.72;4898057;29;1907;-71
2022/02/06 13:53:38;;;;;;;;;;;;;;;22.10;21.79;98273.13;4898548;29;938;-71
2022/02/06 13:56:07;;;;;;;;;;;;;;;21.90;21.97;98281.69;4897626;29;1115;-71
2022/02/06 13:58:32;;;;;;;;;;;;;;;21.97;22.04;98275.06;4879805;29;1000;-72
2022/02/06 14:00:59;;;;;;;;;;;;;;;22.03;21.61;98267.63;4887933;29;960;-71
2022/02/06 14:03:43;;;;;;;;;;;;;;;22.12;21.64;98267.81;4898041;29;1264;-72
2022/02/06 14:06:09;;;;;;;;;;;;;;;22.02;22.09;98269.66;4898524;29;1070;-71
2022/02/06 14:08:36;;;;;;;;;;;;;;;22.20;21.85;98260.75;4883118;29;1223;-72
2022/02/06 14:11:07;;;;;;;;;;;;;;;22.19;21.80;98269.69;4893455;29;2339;-71
2022/02/06 14:13:33;;;;;;;;;;;;;;;21.85;21.89;98268.81;4898446;29;957;-71
2022/02/06 14:16:02;;;;;;;;;;;;;;;22.02;21.93;98261.16;4898507;29;983;-71
2022/02/06 14:18:27;;;;;;;;;;;;;;;22.21;21.76;98268.00;4898146;29;1440;-71
2022/02/06 14:20:56;;;;;;;;;;;;;;;22.27;21.66;98268.25;4882331;29;951;-71
2022/02/06 14:23:22;;;;;;;;;;;;;;;22.25;21.47;98265.88;4879963;29;950;-71
2022/02/06 14:25:48;;;;;;;;;;;;;;;22.32;21.28;98262.06;4883339;29;984;-71
2022/02/06 14:28:16;;;;;;;;;;;;;;;22.24;21.37;98269.16;4883402;29;1064;-71
2022/02/06 14:30:43;;;;;;;;;;;;;;;22.06;21.99;98255.41;4883365;29;1735;-71
2022/02/06 14:33:13;;;;;;;;;;;;;;;22.02;21.61;98260.34;4883093;29;1918;-71
2022/02/06 14:35:38;;;;;;;;;;;;;;;22.16;21.80;98260.03;4939737;29;978;-71
2022/02/06 14:38:05;;;;;;;;;;;;;;;22.14;21.43;98250.41;4939204;29;1501;-71
2022/02/06 14:40:52;;;;;;;;;;;;;;;22.14;21.64;98256.84;4939821;29;937;-71
2022/02/06 14:43:36;;;;;;;;;;;;;;;22.01;21.73;98253.09;4926359;29;933;-71
2022/02/06 14:46:02;;;;;;;;;;;;;;;22.20;21.63;98246.56;4939397;29;1167;-71
2022/02/06 14:48:28;;;;;;;;;;;;;;;22.23;21.36;98248.53;4961816;28;952;-71
2022/02/06 14:50:53;;;;;;;;;;;;;;;22.51;21.47;98243.34;4997425;28;1930;-71
2022/02/06 14:53:20;;;;;;;;;;;;;;;22.27;21.31;98243.53;4999172;28;1076;-71
2022/02/06 14:55:46;;;;;;;;;;;;;;;22.16;21.83;98245.84;5017052;28;982;-71
2022/02/06 14:58:12;;;;;;;;;;;;;;;22.27;21.48;98242.75;5017094;28;1008;-71
2022/02/06 15:00:40;;;;;;;;;;;;;;;22.14;21.50;98239.84;5016963;28;1066;-71
2022/02/06 15:03:06;;;;;;;;;;;;;;;22.26;21.41;98230.63;4958267;29;976;-72
2022/02/06 15:05:32;;;;;;;;;;;;;;;22.12;21.81;98236.66;4958554;29;962;-71
2022/02/06 15:07:57;;;;;;;;;;;;;;;22.01;21.91;98236.09;4958567;29;1115;-71
2022/02/06 15:10:23;;;;;;;;;;;;;;;22.06;21.76;98227.84;4958540;29;989;-71
2022/02/06 15:12:49;;;;;;;;;;;;;;;21.95;21.75;98220.88;4958050;29;1978;-71
2022/02/06 15:15:17;;;;;;;;;;;;;;;22.13;21.59;98220.47;4958417;29;1037;-71
2022/02/06 15:17:42;;;;;;;;;;;;;;;22.07;21.78;98222.97;4958286;29;1055;-70
2022/02/06 15:20:08;;;;;;;;;;;;;;;21.89;22.17;98216.97;4973527;28;954;-72
2022/02/06 15:22:34;;;;;;;;;;;;;;;21.31;22.88;98217.50;4977134;28;1078;-71
2022/02/06 15:24:59;;;;;;;;;;;;;;;21.91;22.25;98217.31;4977639;28;925;-71
2022/02/06 15:27:25;;;;;;;;;;;;;;;21.57;22.50;98208.00;4977295;28;984;-71
2022/02/06 15:29:51;;;;;;;;;;;;;;;21.83;22.40;98209.00;4976992;28;1000;-71
2022/02/06 15:32:18;;;;;;;;;;;;;;;21.97;21.72;98201.41;4996732;28;1903;-71
2022/02/06 15:34:44;;;;;;;;;;;;;;;21.76;21.96;98206.34;4996292;28;1046;-71
2022/02/06 15:37:13;;;;;;;;;;;;;;;21.43;22.78;98201.88;4996705;28;1007;-71
2022/02/06 15:39:39;;;;;;;;;;;;;;;22.07;21.92;98201.13;4999321;28;1051;-71
2022/02/06 15:42:08;;;;;;;;;;;;;;;22.18;21.63;98206.56;5015901;28;1045;-71
2022/02/06 15:44:34;;;;;;;;;;;;;;;22.40;21.51;98211.66;5016124;28;1001;-70
2022/02/06 15:46:59;;;;;;;;;;;;;;;22.18;21.91;98212.22;5015965;28;979;-71
2022/02/06 15:49:25;;;;;;;;;;;;;;;22.26;21.44;98202.28;5016149;28;1003;-70
2022/02/06 15:51:50;;;;;;;;;;;;;;;22.03;21.73;98200.41;5015898;28;1969;-71